createdAt,value
2022-11-29T00:01:40.442Z,27.69
2022-11-29T00:04:08.816Z,27.71
2022-11-29T00:06:37.040Z,27.16
2022-11-29T00:09:07.894Z,27.73
2022-11-29T00:11:56.851Z,28.93
2022-11-29T00:14:26.960Z,27.68
2022-11-29T00:16:59.237Z,27.43
2022-11-29T00:19:27.977Z,27.42
2022-11-29T00:21:56.006Z,26.90
2022-11-29T00:24:24.063Z,27.21
2022-11-29T00:26:51.924Z,26.73
2022-11-29T00:29:20.460Z,28.25
2022-11-29T00:31:48.448Z,27.66
2022-11-29T00:34:16.313Z,28.48
2022-11-29T00:36:44.267Z,27.95
2022-11-29T00:39:12.557Z,28.68
2022-11-29T00:41:40.544Z,28.71
2022-11-29T00:44:09.269Z,27.79
2022-11-29T00:46:37.561Z,27.59
2022-11-29T00:49:05.754Z,27.97
2022-11-29T00:51:33.712Z,27.89
2022-11-29T00:54:01.943Z,27.87
2022-11-29T00:56:30.981Z,26.81
2022-11-29T00:58:58.871Z,27.91
2022-11-29T01:01:26.814Z,27.50
2022-11-29T01:03:54.845Z,27.96
2022-11-29T01:06:22.922Z,27.57
2022-11-29T01:08:50.983Z,27.29
2022-11-29T01:11:22.796Z,27.05
2022-11-29T01:13:54.174Z,27.39
2022-11-29T01:16:22.942Z,27.99
2022-11-29T01:18:50.963Z,27.30
2022-11-29T01:21:21.730Z,27.46
2022-11-29T01:23:51.285Z,27.02
2022-11-29T01:26:30.117Z,27.63
2022-11-29T01:28:59.028Z,28.30
2022-11-29T01:31:30.901Z,28.51
2022-11-29T01:34:01.318Z,27.70
2022-11-29T01:36:29.877Z,27.89
2022-11-29T01:39:02.554Z,28.91
2022-11-29T01:41:33.235Z,28.92
2022-11-29T01:44:13.237Z,29.18
2022-11-29T01:46:47.301Z,28.70
2022-11-29T01:49:21.656Z,29.44
2022-11-29T01:51:58.925Z,29.55
2022-11-29T01:54:27.046Z,29.01
2022-11-29T01:56:55.041Z,29.13
2022-11-29T01:59:26.128Z,29.59
2022-11-29T02:02:03.336Z,29.03
2022-11-29T02:04:36.195Z,28.97
2022-11-29T02:07:05.317Z,29.33
2022-11-29T02:09:33.225Z,28.83
2022-11-29T02:12:21.107Z,29.25
2022-11-29T02:15:06.805Z,29.62
2022-11-29T02:18:02.681Z,29.68
2022-11-29T02:21:06.679Z,29.25
2022-11-29T02:23:43.643Z,28.50
2022-11-29T02:26:44.322Z,29.05
2022-11-29T02:29:40.090Z,29.45
2022-11-29T02:32:45.613Z,28.96
2022-11-29T02:35:41.509Z,28.77
2022-11-29T02:38:28.391Z,29.36
2022-11-29T02:41:20.693Z,28.94
2022-11-29T02:44:06.975Z,29.74
2022-11-29T02:47:00.149Z,30.29
2022-11-29T02:49:46.232Z,29.94
2022-11-29T02:52:26.334Z,29.61
2022-11-29T02:55:08.300Z,30.33
2022-11-29T02:57:45.919Z,30.66
2022-11-29T03:00:19.491Z,30.68
2022-11-29T03:02:56.973Z,29.25
2022-11-29T03:05:54.222Z,30.37
2022-11-29T03:08:49.431Z,30.86
2022-11-29T03:11:54.819Z,30.78
2022-11-29T03:15:01.465Z,31.21
2022-11-29T03:18:11.458Z,31.13
2022-11-29T03:21:17.911Z,31.10
2022-11-29T03:23:50.614Z,31.41
2022-11-29T03:26:34.670Z,31.17
2022-11-29T03:29:11.470Z,31.68
2022-11-29T03:31:48.241Z,31.10
2022-11-29T03:34:30.367Z,31.46
2022-11-29T03:37:03.639Z,31.56
2022-11-29T03:39:46.188Z,32.45
2022-11-29T03:42:23.493Z,31.58
2022-11-29T03:44:59.883Z,32.79
2022-11-29T03:47:34.281Z,32.40
2022-11-29T03:50:16.704Z,31.68
2022-11-29T03:52:58.050Z,31.43
2022-11-29T03:55:47.686Z,31.07
2022-11-29T03:58:44.575Z,32.69
2022-11-29T04:01:21.671Z,32.00
2022-11-29T04:04:25.036Z,31.00
2022-11-29T04:07:17.535Z,32.22
2022-11-29T04:10:07.441Z,32.15
2022-11-29T04:13:12.558Z,31.15
2022-11-29T04:16:08.624Z,32.04
2022-11-29T04:18:54.925Z,32.44
2022-11-29T04:22:06.372Z,32.59
2022-11-29T04:25:03.450Z,31.99
2022-11-29T04:27:43.636Z,32.20
2022-11-29T04:30:23.133Z,33.05
2022-11-29T04:33:15.544Z,32.55
2022-11-29T04:36:17.704Z,32.78
2022-11-29T04:39:21.423Z,32.31
2022-11-29T04:42:26.810Z,31.74
2022-11-29T04:45:00.712Z,32.38
2022-11-29T04:47:50.475Z,33.14
2022-11-29T04:50:47.754Z,32.87
2022-11-29T04:53:21.520Z,33.61
2022-11-29T04:56:11.232Z,33.08
2022-11-29T04:59:15.657Z,33.83
2022-11-29T05:01:58.727Z,35.43
2022-11-29T05:04:48.007Z,34.94
2022-11-29T05:07:33.934Z,34.39
2022-11-29T05:10:29.681Z,34.42
2022-11-29T05:13:10.925Z,33.56
2022-11-29T05:15:55.403Z,33.80
2022-11-29T05:19:04.544Z,33.43
2022-11-29T05:22:05.664Z,32.84
2022-11-29T05:24:36.515Z,34.21
2022-11-29T05:27:34.824Z,34.12
2022-11-29T05:30:09.608Z,34.33
2022-11-29T05:32:57.253Z,33.97
2022-11-29T05:35:33.987Z,34.79
2022-11-29T05:38:02.228Z,34.61
2022-11-29T05:41:09.527Z,33.98
2022-11-29T05:44:11.268Z,34.12
2022-11-29T05:47:01.521Z,33.58
2022-11-29T05:50:06.163Z,34.96
2022-11-29T05:52:53.836Z,35.07
2022-11-29T05:55:33.684Z,35.32
2022-11-29T05:58:30.093Z,35.09
2022-11-29T06:01:21.047Z,35.85
2022-11-29T06:03:52.216Z,35.90
2022-11-29T06:06:49.320Z,35.89
2022-11-29T06:09:26.994Z,35.74
2022-11-29T06:12:06.789Z,36.13
2022-11-29T06:15:13.657Z,36.26
2022-11-29T06:18:13.960Z,35.71
2022-11-29T06:21:00.735Z,35.18
2022-11-29T06:23:48.492Z,35.99
2022-11-29T06:26:29.323Z,36.57
2022-11-29T06:29:06.660Z,35.86
2022-11-29T06:31:40.022Z,35.56
2022-11-29T06:34:18.074Z,35.46
2022-11-29T06:36:54.836Z,35.65
2022-11-29T06:39:23.567Z,35.42
2022-11-29T06:41:51.570Z,36.86
2022-11-29T06:44:19.766Z,37.41
2022-11-29T06:47:06.247Z,36.83
2022-11-29T06:49:42.231Z,35.87
2022-11-29T06:52:26.693Z,36.60
2022-11-29T06:55:01.279Z,36.30
2022-11-29T06:57:45.279Z,36.70
2022-11-29T07:00:20.279Z,36.37
2022-11-29T07:03:07.065Z,37.48
2022-11-29T07:05:36.037Z,36.78
2022-11-29T07:08:12.375Z,37.39
2022-11-29T07:10:42.360Z,37.02
2022-11-29T07:13:15.993Z,37.21
2022-11-29T07:16:00.247Z,36.31
2022-11-29T07:18:38.343Z,35.10
2022-11-29T07:21:38.352Z,34.56
2022-11-29T07:24:30.884Z,36.90
2022-11-29T07:27:21.162Z,36.49
2022-11-29T07:30:15.316Z,37.23
2022-11-29T07:33:12.634Z,37.00
2022-11-29T07:35:56.101Z,37.85
2022-11-29T07:38:41.615Z,37.84
2022-11-29T07:41:28.013Z,37.56
2022-11-29T07:44:07.699Z,38.19
2022-11-29T07:46:35.730Z,37.06
2022-11-29T07:49:03.691Z,37.79
2022-11-29T07:51:32.168Z,37.09
2022-11-29T07:54:00.217Z,37.08
2022-11-29T07:56:28.134Z,36.66
2022-11-29T07:58:56.056Z,38.32
2022-11-29T08:01:24.035Z,37.77
2022-11-29T08:03:52.010Z,38.20
2022-11-29T08:06:26.519Z,38.93
2022-11-29T08:08:57.750Z,37.83
2022-11-29T08:11:25.869Z,37.69
2022-11-29T08:13:57.986Z,36.98
2022-11-29T08:16:26.262Z,37.28
2022-11-29T08:18:54.366Z,37.84
2022-11-29T08:21:22.380Z,38.15
2022-11-29T08:23:51.117Z,38.21
2022-11-29T08:26:20.963Z,36.82
2022-11-29T08:28:52.705Z,36.96
2022-11-29T08:31:21.494Z,37.06
2022-11-29T08:33:49.430Z,37.14
2022-11-29T08:36:19.730Z,37.50
2022-11-29T08:38:47.880Z,36.98
2022-11-29T08:41:17.158Z,37.58
2022-11-29T08:43:45.160Z,37.43
2022-11-29T08:46:18.304Z,37.80
2022-11-29T08:48:47.575Z,37.49
2022-11-29T08:51:15.760Z,38.36
2022-11-29T08:53:45.999Z,38.00
2022-11-29T08:59:06.750Z,38.25
2022-11-29T09:01:34.687Z,39.09
2022-11-29T09:04:03.111Z,39.52
2022-11-29T09:06:33.379Z,38.46
2022-11-29T09:09:01.350Z,37.72
2022-11-29T09:11:30.685Z,36.54
2022-11-29T09:14:02.362Z,37.51
2022-11-29T09:16:33.768Z,36.58
2022-11-29T09:19:02.891Z,35.87
2022-11-29T09:21:32.474Z,37.06
2022-11-29T09:24:05.494Z,36.21
2022-11-29T09:26:36.324Z,36.51
2022-11-29T09:29:05.986Z,37.08
2022-11-29T09:31:35.238Z,35.79
2022-11-29T09:34:03.897Z,37.03
2022-11-29T09:36:31.994Z,36.59
2022-11-29T09:39:04.623Z,37.89
2022-11-29T09:41:48.382Z,38.53
2022-11-29T09:44:35.130Z,37.00
2022-11-29T09:47:13.496Z,36.12
2022-11-29T09:49:54.472Z,39.47
2022-11-29T09:52:54.800Z,39.75
2022-11-29T09:55:53.410Z,38.56
2022-11-29T09:58:26.905Z,37.02
2022-11-29T10:01:03.497Z,36.89
2022-11-29T10:03:36.318Z,35.99
2022-11-29T10:06:34.170Z,36.95
2022-11-29T10:09:17.151Z,36.44
2022-11-29T10:12:06.011Z,36.85
2022-11-29T10:15:17.089Z,37.10
2022-11-29T10:18:04.942Z,35.53
2022-11-29T10:20:42.447Z,41.01
2022-11-29T10:23:32.614Z,39.00
2022-11-29T10:26:00.766Z,36.59
2022-11-29T10:28:34.442Z,36.02
2022-11-29T10:31:29.166Z,38.75
2022-11-29T10:34:01.372Z,37.04
2022-11-29T10:36:48.200Z,39.12
2022-11-29T10:39:24.735Z,37.52
2022-11-29T10:41:59.813Z,35.38
2022-11-29T10:44:28.942Z,34.04
2022-11-29T10:46:58.759Z,32.73
2022-11-29T10:49:28.546Z,33.15
2022-11-29T10:51:56.422Z,34.85
2022-11-29T10:54:42.675Z,34.47
2022-11-29T10:57:19.275Z,34.63
2022-11-29T11:00:11.482Z,34.91
2022-11-29T11:02:40.040Z,35.18
2022-11-29T11:05:18.829Z,37.56
2022-11-29T11:07:57.795Z,37.21
2022-11-29T11:10:30.894Z,36.68
2022-11-29T11:13:05.475Z,38.64
2022-11-29T11:15:34.038Z,39.15
2022-11-29T11:18:07.338Z,39.39
2022-11-29T11:20:39.371Z,41.79
2022-11-29T11:23:23.611Z,40.42
2022-11-29T11:26:07.385Z,38.47
2022-11-29T11:28:47.114Z,34.44
2022-11-29T11:31:16.310Z,33.87
2022-11-29T11:33:45.668Z,34.57
2022-11-29T11:36:21.660Z,35.05
2022-11-29T11:38:55.439Z,35.50
2022-11-29T11:41:54.280Z,34.46
2022-11-29T11:44:50.111Z,34.80
2022-11-29T11:47:20.902Z,34.49
2022-11-29T11:50:09.085Z,33.25
2022-11-29T11:52:41.932Z,33.25
2022-11-29T11:55:35.259Z,32.09
2022-11-29T11:58:12.184Z,32.08
2022-11-29T12:01:04.422Z,31.91
2022-11-29T12:03:34.885Z,31.70
2022-11-29T12:06:36.977Z,32.41
2022-11-29T12:09:23.038Z,32.09
2022-11-29T12:12:08.103Z,31.02
2022-11-29T12:14:54.047Z,31.32
2022-11-29T12:17:43.654Z,32.39
2022-11-29T12:20:26.817Z,30.54
2022-11-29T12:23:12.910Z,29.79
2022-11-29T12:25:59.248Z,30.02
2022-11-29T12:28:30.418Z,30.74
2022-11-29T12:31:36.020Z,31.87
2022-11-29T12:34:26.753Z,34.09
2022-11-29T12:37:11.680Z,33.55
2022-11-29T12:39:50.573Z,32.66
2022-11-29T12:42:24.518Z,32.72
2022-11-29T12:45:23.635Z,31.98
2022-11-29T12:48:31.012Z,30.23
2022-11-29T12:51:02.127Z,33.06
2022-11-29T12:54:07.059Z,32.54
2022-11-29T12:56:53.786Z,32.48
2022-11-29T12:59:58.681Z,31.04
2022-11-29T13:02:45.374Z,31.05
2022-11-29T13:05:22.474Z,30.24
2022-11-29T13:07:58.588Z,29.99
2022-11-29T13:10:45.243Z,29.74
2022-11-29T13:13:25.309Z,30.02
2022-11-29T13:16:22.990Z,30.89
2022-11-29T13:19:15.547Z,30.89
2022-11-29T13:22:02.913Z,29.87
2022-11-29T13:24:42.936Z,30.32
2022-11-29T13:27:18.584Z,29.53
2022-11-29T13:29:47.059Z,29.38
2022-11-29T13:32:36.245Z,29.80
2022-11-29T13:35:41.364Z,29.10
2022-11-29T13:38:25.579Z,29.31
2022-11-29T13:41:16.383Z,27.93
2022-11-29T13:44:02.833Z,28.94
2022-11-29T13:46:49.442Z,28.37
2022-11-29T13:49:52.845Z,28.29
2022-11-29T13:52:39.512Z,30.09
2022-11-29T13:55:21.886Z,30.49
2022-11-29T14:00:42.817Z,31.21
2022-11-29T14:03:40.211Z,30.07
2022-11-29T14:06:15.093Z,31.46
2022-11-29T14:09:17.771Z,31.24
2022-11-29T14:11:43.410Z,30.44
2022-11-29T14:14:19.221Z,30.37
2022-11-29T14:16:51.011Z,31.75
2022-11-29T14:19:19.216Z,31.80
2022-11-29T14:21:58.738Z,31.84
2022-11-29T14:24:32.443Z,32.23
2022-11-29T14:27:06.028Z,32.86
2022-11-29T14:29:49.509Z,32.32
2022-11-29T14:32:49.415Z,30.92
2022-11-29T14:35:30.302Z,31.85
2022-11-29T14:38:10.100Z,32.14
2022-11-29T14:40:40.655Z,31.98
2022-11-29T14:43:23.287Z,31.76
2022-11-29T14:46:31.725Z,31.98
2022-11-29T14:49:03.627Z,32.93
2022-11-29T14:51:33.537Z,32.89
2022-11-29T14:54:15.453Z,32.43
2022-11-29T14:56:45.126Z,31.46
2022-11-29T14:59:42.725Z,32.40
2022-11-29T15:02:35.078Z,32.72
2022-11-29T15:05:27.401Z,32.60
2022-11-29T15:08:14.085Z,30.78
2022-11-29T15:10:50.758Z,29.53
2022-11-29T15:13:29.126Z,30.34
2022-11-29T15:16:04.299Z,30.19
2022-11-29T15:18:35.330Z,30.77
2022-11-29T15:21:25.020Z,30.78
2022-11-29T15:24:02.698Z,29.42
2022-11-29T15:26:32.134Z,31.06
2022-11-29T15:29:18.598Z,30.87
2022-11-29T15:31:58.563Z,31.24
2022-11-29T15:34:34.542Z,31.39
2022-11-29T15:37:02.625Z,30.97
2022-11-29T15:39:37.441Z,31.07
2022-11-29T15:42:13.794Z,31.41
2022-11-29T15:44:46.541Z,31.72
2022-11-29T15:47:25.771Z,31.36
2022-11-29T15:49:54.505Z,30.89
2022-11-29T15:52:31.887Z,31.86
2022-11-29T15:55:04.200Z,31.66
2022-11-29T15:57:38.138Z,32.97
2022-11-29T16:00:09.279Z,32.62
2022-11-29T16:03:06.386Z,32.72
2022-11-29T16:05:37.552Z,34.96
2022-11-29T16:08:15.264Z,34.17
2022-11-29T16:10:47.514Z,32.40
2022-11-29T16:13:31.475Z,32.06
2022-11-29T16:16:21.557Z,33.68
2022-11-29T16:18:50.699Z,34.61
2022-11-29T16:21:32.563Z,37.49
2022-11-29T16:24:19.868Z,38.72
2022-11-29T16:26:50.288Z,41.80
2022-11-29T16:29:27.329Z,43.20
2022-11-29T16:31:55.830Z,43.52
2022-11-29T16:34:31.142Z,40.74
2022-11-29T16:37:06.355Z,39.75
2022-11-29T16:39:37.765Z,38.51
2022-11-29T16:42:08.425Z,35.78
2022-11-29T16:44:39.178Z,35.05
2022-11-29T16:47:12.519Z,33.67
2022-11-29T16:49:40.427Z,32.89
2022-11-29T16:52:25.069Z,33.23
2022-11-29T16:54:53.026Z,32.67
2022-11-29T16:57:21.569Z,31.97
2022-11-29T16:59:50.110Z,32.26
2022-11-29T17:02:18.488Z,36.02
2022-11-29T17:04:46.823Z,35.91
2022-11-29T17:07:18.734Z,38.18
2022-11-29T17:09:46.714Z,35.09
2022-11-29T17:12:15.113Z,32.53
2022-11-29T17:14:43.141Z,31.70
2022-11-29T17:17:16.510Z,31.97
2022-11-29T17:19:44.916Z,32.02
2022-11-29T17:22:14.410Z,32.22
2022-11-29T17:24:47.700Z,31.49
2022-11-29T17:27:16.398Z,30.68
2022-11-29T17:29:44.342Z,30.60
2022-11-29T17:32:12.259Z,30.51
2022-11-29T17:34:40.270Z,29.79
2022-11-29T17:37:08.135Z,29.50
2022-11-29T17:39:36.078Z,29.96
2022-11-29T17:42:03.990Z,29.46
2022-11-29T17:44:33.996Z,30.15
2022-11-29T17:47:01.906Z,30.66
2022-11-29T17:49:29.829Z,29.82
2022-11-29T17:51:57.896Z,29.99
2022-11-29T17:54:26.212Z,30.61
2022-11-29T17:56:55.151Z,30.35
2022-11-29T17:59:23.089Z,29.78
2022-11-29T18:01:51.053Z,30.11
2022-11-29T18:04:19.033Z,30.33
2022-11-29T18:06:50.290Z,30.58
2022-11-29T18:09:19.604Z,30.70
2022-11-29T18:11:49.951Z,31.10
2022-11-29T18:14:22.147Z,31.01
2022-11-29T18:16:50.562Z,29.80
2022-11-29T18:19:21.472Z,30.34
2022-11-29T18:21:50.323Z,31.25
2022-11-29T18:24:18.608Z,31.80
2022-11-29T18:26:47.052Z,31.92
2022-11-29T18:29:14.943Z,31.69
2022-11-29T18:31:45.015Z,31.36
2022-11-29T18:34:14.360Z,31.32
2022-11-29T18:36:45.149Z,30.86
2022-11-29T18:39:16.027Z,31.46
2022-11-29T18:41:47.179Z,30.87
2022-11-29T18:44:17.471Z,30.85
2022-11-29T18:46:46.195Z,32.09
2022-11-29T18:49:16.483Z,32.95
2022-11-29T18:51:45.533Z,33.78
2022-11-29T18:54:15.941Z,33.40
2022-11-29T18:56:45.553Z,32.29
2022-11-29T18:59:17.831Z,33.42
2022-11-29T19:01:48.034Z,34.12
2022-11-29T19:04:19.480Z,39.32
2022-11-29T19:06:48.252Z,34.80
2022-11-29T19:09:20.988Z,35.68
2022-11-29T19:11:49.788Z,35.90
2022-11-29T19:14:18.838Z,35.34
2022-11-29T19:16:48.798Z,34.19
2022-11-29T19:19:18.660Z,33.59
2022-11-29T19:21:46.921Z,33.53
2022-11-29T19:24:17.591Z,34.23
2022-11-29T19:26:47.531Z,33.69
2022-11-29T19:29:15.954Z,32.56
2022-11-29T19:31:44.740Z,32.91
2022-11-29T19:34:13.373Z,32.58
2022-11-29T19:36:43.439Z,33.01
2022-11-29T19:39:14.616Z,33.40
2022-11-29T19:41:45.105Z,33.52
2022-11-29T19:44:13.345Z,34.40
2022-11-29T19:46:47.005Z,34.62
2022-11-29T19:49:15.029Z,35.60
2022-11-29T19:51:43.621Z,36.44
2022-11-29T19:54:12.153Z,34.78
2022-11-29T19:56:40.199Z,34.70
2022-11-29T19:59:09.013Z,35.64
2022-11-29T20:01:41.262Z,35.48
2022-11-29T20:04:12.374Z,35.43
2022-11-29T20:06:41.927Z,36.39
2022-11-29T20:09:10.794Z,39.69
2022-11-29T20:11:38.906Z,39.59
2022-11-29T20:14:07.493Z,39.17
2022-11-29T20:16:37.936Z,39.17
2022-11-29T20:19:15.457Z,40.09
2022-11-29T20:21:46.391Z,41.80
2022-11-29T20:24:16.057Z,41.16
2022-11-29T20:26:46.103Z,41.71
2022-11-29T20:29:14.796Z,41.86
2022-11-29T20:31:49.617Z,40.48
2022-11-29T20:34:18.828Z,39.68
2022-11-29T20:37:07.449Z,39.83
2022-11-29T20:39:58.306Z,40.19
2022-11-29T20:42:29.467Z,39.87
2022-11-29T20:45:04.027Z,41.69
2022-11-29T20:47:45.017Z,40.96
2022-11-29T20:50:26.011Z,41.03
2022-11-29T20:52:59.778Z,42.85
2022-11-29T20:55:27.875Z,44.27
2022-11-29T20:57:56.249Z,43.31
2022-11-29T21:00:24.484Z,44.49
2022-11-29T21:02:52.517Z,43.96
2022-11-29T21:05:20.368Z,48.62
2022-11-29T21:07:48.409Z,49.31
2022-11-29T21:10:16.469Z,47.87
2022-11-29T21:12:45.807Z,45.79
2022-11-29T21:15:14.630Z,44.92
2022-11-29T21:17:43.346Z,43.68
2022-11-29T21:20:37.496Z,42.73
2022-11-29T21:23:14.522Z,42.89
2022-11-29T21:25:45.528Z,41.91
2022-11-29T21:28:15.265Z,43.94
2022-11-29T21:30:43.761Z,46.46
2022-11-29T21:33:12.086Z,44.63
2022-11-29T21:35:40.353Z,49.38
2022-11-29T21:38:14.911Z,46.93
2022-11-29T21:40:42.826Z,44.31
2022-11-29T21:43:10.720Z,44.45
2022-11-29T21:45:38.732Z,44.43
2022-11-29T21:48:26.751Z,44.58
2022-11-29T21:50:56.579Z,45.55
2022-11-29T21:53:26.401Z,45.54
2022-11-29T21:55:58.925Z,45.62
2022-11-29T21:58:29.075Z,45.32
2022-11-29T22:01:04.848Z,44.60
2022-11-29T22:03:32.778Z,43.71
2022-11-29T22:06:06.107Z,45.95
2022-11-29T22:08:36.171Z,45.14
2022-11-29T22:11:08.951Z,43.70
2022-11-29T22:13:58.421Z,42.83
2022-11-29T22:16:26.341Z,42.89
2022-11-29T22:18:54.769Z,42.48
2022-11-29T22:21:22.647Z,42.99
2022-11-29T22:23:52.625Z,40.91
2022-11-29T22:26:22.495Z,41.89
2022-11-29T22:28:50.511Z,45.29
2022-11-29T22:31:18.428Z,52.94
2022-11-29T22:33:46.360Z,53.38
2022-11-29T22:36:14.425Z,51.50
2022-11-29T22:38:42.377Z,49.44
2022-11-29T22:41:12.165Z,48.47
2022-11-29T22:43:41.476Z,45.39
2022-11-29T22:46:21.523Z,44.25
2022-11-29T22:48:52.714Z,43.89
2022-11-29T22:51:22.702Z,43.45
2022-11-29T22:53:55.477Z,43.73
2022-11-29T22:56:26.006Z,44.17
2022-11-29T22:58:54.452Z,46.73
2022-11-29T23:01:25.567Z,45.66
2022-11-29T23:03:56.273Z,44.52
2022-11-29T23:06:29.519Z,44.09
2022-11-29T23:09:00.082Z,43.71
2022-11-29T23:11:29.485Z,44.39
2022-11-29T23:13:57.738Z,43.61
2022-11-29T23:16:27.713Z,44.73
2022-11-29T23:18:58.125Z,42.94
2022-11-29T23:21:35.216Z,43.04
2022-11-29T23:24:03.469Z,44.66
2022-11-29T23:26:38.940Z,43.76
2022-11-29T23:29:09.268Z,43.71
2022-11-29T23:31:37.298Z,42.27
2022-11-29T23:34:06.532Z,42.05
2022-11-29T23:36:34.809Z,42.03
2022-11-29T23:39:06.609Z,42.24
2022-11-29T23:41:36.372Z,42.08
2022-11-29T23:44:05.073Z,41.32
2022-11-29T23:46:33.343Z,41.35
2022-11-29T23:49:01.263Z,41.60
2022-11-29T23:51:29.174Z,43.04
2022-11-29T23:53:57.191Z,42.90
2022-11-29T23:56:25.214Z,42.41
2022-11-29T23:58:53.098Z,41.63
